sensor_id;sensor_type;location;lat;lon;timestamp;temperature;humidity
39503;DHT22;26970;49.900;10.774;2022-07-03T00:01:11;18.90;99.90
39503;DHT22;26970;49.900;10.774;2022-07-03T00:03:37;18.90;99.90
39503;DHT22;26970;49.900;10.774;2022-07-03T00:06:02;18.80;99.90
39503;DHT22;26970;49.900;10.774;2022-07-03T00:08:28;18.60;99.90
39503;DHT22;26970;49.900;10.774;2022-07-03T00:10:54;18.40;99.90
39503;DHT22;26970;49.900;10.774;2022-07-03T00:13:19;18.10;99.90
39503;DHT22;26970;49.900;10.774;2022-07-03T00:15:45;17.90;99.90
39503;DHT22;26970;49.900;10.774;2022-07-03T00:18:10;17.70;99.90
39503;DHT22;26970;49.900;10.774;2022-07-03T00:20:45;17.40;99.90
39503;DHT22;26970;49.900;10.774;2022-07-03T00:23:15;17.30;99.90
39503;DHT22;26970;49.900;10.774;2022-07-03T00:25:41;17.10;99.90
39503;DHT22;26970;49.900;10.774;2022-07-03T00:28:08;17.10;99.90
39503;DHT22;26970;49.900;10.774;2022-07-03T00:30:34;17.10;99.90
39503;DHT22;26970;49.900;10.774;2022-07-03T00:33:04;16.90;99.90
39503;DHT22;26970;49.900;10.774;2022-07-03T00:35:35;16.90;99.90
39503;DHT22;26970;49.900;10.774;2022-07-03T00:38:02;16.80;99.90
39503;DHT22;26970;49.900;10.774;2022-07-03T00:40:29;16.70;99.90
39503;DHT22;26970;49.900;10.774;2022-07-03T00:42:55;16.60;99.90
39503;DHT22;26970;49.900;10.774;2022-07-03T00:45:21;16.60;99.90
39503;DHT22;26970;49.900;10.774;2022-07-03T00:47:47;16.50;99.90
39503;DHT22;26970;49.900;10.774;2022-07-03T00:50:13;16.50;99.90
39503;DHT22;26970;49.900;10.774;2022-07-03T00:52:46;16.40;99.90
39503;DHT22;26970;49.900;10.774;2022-07-03T00:55:16;16.40;99.90
39503;DHT22;26970;49.900;10.774;2022-07-03T00:57:45;16.30;99.90
39503;DHT22;26970;49.900;10.774;2022-07-03T01:00:14;16.30;99.90
39503;DHT22;26970;49.900;10.774;2022-07-03T01:08:10;16.30;99.90
39503;DHT22;26970;49.900;10.774;2022-07-03T01:16:06;16.20;99.90
39503;DHT22;26970;49.900;10.774;2022-07-03T01:18:44;16.30;99.90
39503;DHT22;26970;49.900;10.774;2022-07-03T01:21:19;16.30;99.90
39503;DHT22;26970;49.900;10.774;2022-07-03T01:26:41;16.40;99.90
39503;DHT22;26970;49.900;10.774;2022-07-03T01:29:16;16.40;99.90
39503;DHT22;26970;49.900;10.774;2022-07-03T01:31:43;16.30;99.90
39503;DHT22;26970;49.900;10.774;2022-07-03T01:34:13;16.30;99.90
39503;DHT22;26970;49.900;10.774;2022-07-03T01:36:42;16.30;99.90
39503;DHT22;26970;49.900;10.774;2022-07-03T01:39:10;16.20;99.90
39503;DHT22;26970;49.900;10.774;2022-07-03T01:41:36;16.10;99.90
39503;DHT22;26970;49.900;10.774;2022-07-03T01:44:03;16.00;99.90
39503;DHT22;26970;49.900;10.774;2022-07-03T01:46:31;15.80;99.90
39503;DHT22;26970;49.900;10.774;2022-07-03T01:48:58;15.80;99.90
39503;DHT22;26970;49.900;10.774;2022-07-03T01:51:25;15.80;99.90
39503;DHT22;26970;49.900;10.774;2022-07-03T01:53:52;15.70;99.90
39503;DHT22;26970;49.900;10.774;2022-07-03T01:56:20;15.60;99.90
39503;DHT22;26970;49.900;10.774;2022-07-03T01:58:46;15.50;99.90
39503;DHT22;26970;49.900;10.774;2022-07-03T02:01:33;15.40;99.90
39503;DHT22;26970;49.900;10.774;2022-07-03T02:06:43;15.30;99.90
39503;DHT22;26970;49.900;10.774;2022-07-03T02:09:11;15.20;99.90
39503;DHT22;26970;49.900;10.774;2022-07-03T02:11:39;15.20;99.90
39503;DHT22;26970;49.900;10.774;2022-07-03T02:17:13;15.10;99.90
39503;DHT22;26970;49.900;10.774;2022-07-03T02:19:53;15.10;99.90
39503;DHT22;26970;49.900;10.774;2022-07-03T02:22:24;15.00;99.90
39503;DHT22;26970;49.900;10.774;2022-07-03T02:24:50;14.90;99.90
39503;DHT22;26970;49.900;10.774;2022-07-03T02:27:21;14.90;99.90
39503;DHT22;26970;49.900;10.774;2022-07-03T02:29:56;15.00;99.90
39503;DHT22;26970;49.900;10.774;2022-07-03T02:32:25;15.00;99.90
39503;DHT22;26970;49.900;10.774;2022-07-03T02:35:02;15.00;99.90
39503;DHT22;26970;49.900;10.774;2022-07-03T02:37:37;14.90;99.90
39503;DHT22;26970;49.900;10.774;2022-07-03T02:40:07;14.90;99.90
39503;DHT22;26970;49.900;10.774;2022-07-03T02:42:54;15.00;99.90
39503;DHT22;26970;49.900;10.774;2022-07-03T02:45:21;15.10;99.90
39503;DHT22;26970;49.900;10.774;2022-07-03T02:48:10;15.20;99.90
39503;DHT22;26970;49.900;10.774;2022-07-03T02:50:40;15.40;99.90
39503;DHT22;26970;49.900;10.774;2022-07-03T02:54:02;15.50;99.90
39503;DHT22;26970;49.900;10.774;2022-07-03T02:56:26;15.60;99.90
39503;DHT22;26970;49.900;10.774;2022-07-03T02:58:57;15.70;99.90
39503;DHT22;26970;49.900;10.774;2022-07-03T03:01:37;15.80;99.90
39503;DHT22;26970;49.900;10.774;2022-07-03T03:04:19;15.80;99.90
39503;DHT22;26970;49.900;10.774;2022-07-03T03:07:08;15.80;99.90
39503;DHT22;26970;49.900;10.774;2022-07-03T03:09:44;15.80;99.90
39503;DHT22;26970;49.900;10.774;2022-07-03T03:12:10;15.80;99.90
39503;DHT22;26970;49.900;10.774;2022-07-03T03:14:39;15.80;99.90
39503;DHT22;26970;49.900;10.774;2022-07-03T03:17:13;15.80;99.90
39503;DHT22;26970;49.900;10.774;2022-07-03T03:19:51;15.90;99.90
39503;DHT22;26970;49.900;10.774;2022-07-03T03:25:06;15.90;99.90
39503;DHT22;26970;49.900;10.774;2022-07-03T03:27:32;15.90;99.90
39503;DHT22;26970;49.900;10.774;2022-07-03T03:29:58;15.90;99.90
39503;DHT22;26970;49.900;10.774;2022-07-03T03:32:24;16.00;99.90
39503;DHT22;26970;49.900;10.774;2022-07-03T03:34:51;16.00;99.90
39503;DHT22;26970;49.900;10.774;2022-07-03T03:37:16;16.20;99.90
39503;DHT22;26970;49.900;10.774;2022-07-03T03:39:43;16.40;99.90
39503;DHT22;26970;49.900;10.774;2022-07-03T03:42:08;16.80;99.90
39503;DHT22;26970;49.900;10.774;2022-07-03T03:44:34;17.00;99.90
39503;DHT22;26970;49.900;10.774;2022-07-03T03:46:59;17.30;99.90
39503;DHT22;26970;49.900;10.774;2022-07-03T03:49:25;17.50;99.90
39503;DHT22;26970;49.900;10.774;2022-07-03T03:51:51;17.80;99.90
39503;DHT22;26970;49.900;10.774;2022-07-03T03:54:18;18.00;99.90
39503;DHT22;26970;49.900;10.774;2022-07-03T03:56:43;18.30;99.90
39503;DHT22;26970;49.900;10.774;2022-07-03T03:59:09;18.60;99.90
39503;DHT22;26970;49.900;10.774;2022-07-03T04:01:34;18.80;99.90
39503;DHT22;26970;49.900;10.774;2022-07-03T04:04:00;18.90;99.90
39503;DHT22;26970;49.900;10.774;2022-07-03T04:06:25;19.10;99.90
39503;DHT22;26970;49.900;10.774;2022-07-03T04:08:51;19.10;99.90
39503;DHT22;26970;49.900;10.774;2022-07-03T04:11:17;19.30;99.90
39503;DHT22;26970;49.900;10.774;2022-07-03T04:13:42;19.10;99.90
39503;DHT22;26970;49.900;10.774;2022-07-03T04:16:08;19.10;99.90
39503;DHT22;26970;49.900;10.774;2022-07-03T04:18:33;19.20;99.90
39503;DHT22;26970;49.900;10.774;2022-07-03T04:20:59;19.30;99.90
39503;DHT22;26970;49.900;10.774;2022-07-03T04:23:25;19.40;99.90
39503;DHT22;26970;49.900;10.774;2022-07-03T04:25:50;19.40;99.90
39503;DHT22;26970;49.900;10.774;2022-07-03T04:28:16;19.70;99.90
39503;DHT22;26970;49.900;10.774;2022-07-03T04:30:41;19.90;99.90
39503;DHT22;26970;49.900;10.774;2022-07-03T04:33:07;20.00;99.90
39503;DHT22;26970;49.900;10.774;2022-07-03T04:35:33;20.20;99.90
39503;DHT22;26970;49.900;10.774;2022-07-03T04:37:58;20.60;99.90
39503;DHT22;26970;49.900;10.774;2022-07-03T04:40:24;20.80;99.90
39503;DHT22;26970;49.900;10.774;2022-07-03T04:42:49;21.00;99.90
39503;DHT22;26970;49.900;10.774;2022-07-03T04:45:15;21.00;99.90
39503;DHT22;26970;49.900;10.774;2022-07-03T04:47:40;21.00;99.90
39503;DHT22;26970;49.900;10.774;2022-07-03T04:50:06;21.20;99.90
39503;DHT22;26970;49.900;10.774;2022-07-03T04:52:32;21.20;99.90
39503;DHT22;26970;49.900;10.774;2022-07-03T04:54:57;21.20;99.90
39503;DHT22;26970;49.900;10.774;2022-07-03T04:57:23;21.10;99.90
39503;DHT22;26970;49.900;10.774;2022-07-03T04:59:49;21.00;99.90
39503;DHT22;26970;49.900;10.774;2022-07-03T05:02:14;20.90;99.90
39503;DHT22;26970;49.900;10.774;2022-07-03T05:04:40;21.00;99.90
39503;DHT22;26970;49.900;10.774;2022-07-03T05:07:05;21.00;99.90
39503;DHT22;26970;49.900;10.774;2022-07-03T05:09:31;21.20;99.90
39503;DHT22;26970;49.900;10.774;2022-07-03T05:11:56;21.40;99.90
39503;DHT22;26970;49.900;10.774;2022-07-03T05:14:22;21.50;99.90
39503;DHT22;26970;49.900;10.774;2022-07-03T05:16:47;21.80;99.90
39503;DHT22;26970;49.900;10.774;2022-07-03T05:19:13;21.70;99.90
39503;DHT22;26970;49.900;10.774;2022-07-03T05:21:38;21.90;99.90
39503;DHT22;26970;49.900;10.774;2022-07-03T05:24:04;22.00;99.90
39503;DHT22;26970;49.900;10.774;2022-07-03T05:26:29;21.80;99.90
39503;DHT22;26970;49.900;10.774;2022-07-03T05:28:55;21.60;99.90
39503;DHT22;26970;49.900;10.774;2022-07-03T05:31:20;21.70;99.90
39503;DHT22;26970;49.900;10.774;2022-07-03T05:33:46;22.00;99.90
39503;DHT22;26970;49.900;10.774;2022-07-03T05:36:11;22.00;99.90
39503;DHT22;26970;49.900;10.774;2022-07-03T05:38:37;22.40;99.90
39503;DHT22;26970;49.900;10.774;2022-07-03T05:41:21;22.10;99.90
39503;DHT22;26970;49.900;10.774;2022-07-03T05:43:47;22.20;99.90
39503;DHT22;26970;49.900;10.774;2022-07-03T05:46:12;22.20;99.90
39503;DHT22;26970;49.900;10.774;2022-07-03T05:48:38;22.00;99.90
39503;DHT22;26970;49.900;10.774;2022-07-03T05:51:03;22.00;99.90
39503;DHT22;26970;49.900;10.774;2022-07-03T05:53:29;21.80;99.90
39503;DHT22;26970;49.900;10.774;2022-07-03T05:55:55;21.90;99.90
39503;DHT22;26970;49.900;10.774;2022-07-03T05:58:20;21.90;99.90
39503;DHT22;26970;49.900;10.774;2022-07-03T06:00:46;21.80;99.90
39503;DHT22;26970;49.900;10.774;2022-07-03T06:03:11;21.60;99.90
39503;DHT22;26970;49.900;10.774;2022-07-03T06:05:37;21.60;99.90
39503;DHT22;26970;49.900;10.774;2022-07-03T06:08:04;21.60;99.90
39503;DHT22;26970;49.900;10.774;2022-07-03T06:10:29;21.50;99.90
39503;DHT22;26970;49.900;10.774;2022-07-03T06:12:55;21.60;99.90
39503;DHT22;26970;49.900;10.774;2022-07-03T06:15:21;21.60;99.90
39503;DHT22;26970;49.900;10.774;2022-07-03T06:17:47;21.70;99.90
39503;DHT22;26970;49.900;10.774;2022-07-03T06:20:13;21.60;99.90
39503;DHT22;26970;49.900;10.774;2022-07-03T06:22:39;21.50;99.90
39503;DHT22;26970;49.900;10.774;2022-07-03T06:25:06;21.60;99.90
39503;DHT22;26970;49.900;10.774;2022-07-03T06:27:31;21.70;99.90
39503;DHT22;26970;49.900;10.774;2022-07-03T06:29:57;21.80;99.90
39503;DHT22;26970;49.900;10.774;2022-07-03T06:32:23;21.90;99.90
39503;DHT22;26970;49.900;10.774;2022-07-03T06:34:48;22.00;99.90
39503;DHT22;26970;49.900;10.774;2022-07-03T06:37:14;22.00;99.90
39503;DHT22;26970;49.900;10.774;2022-07-03T06:39:40;21.90;99.90
39503;DHT22;26970;49.900;10.774;2022-07-03T06:42:06;21.70;99.90
39503;DHT22;26970;49.900;10.774;2022-07-03T06:44:33;21.80;99.90
39503;DHT22;26970;49.900;10.774;2022-07-03T06:46:58;22.00;99.90
39503;DHT22;26970;49.900;10.774;2022-07-03T06:49:29;22.00;99.90
39503;DHT22;26970;49.900;10.774;2022-07-03T06:51:54;21.80;99.90
39503;DHT22;26970;49.900;10.774;2022-07-03T06:54:20;21.90;99.90
39503;DHT22;26970;49.900;10.774;2022-07-03T06:56:45;22.00;99.90
39503;DHT22;26970;49.900;10.774;2022-07-03T06:59:11;22.30;99.90
39503;DHT22;26970;49.900;10.774;2022-07-03T07:01:36;22.30;99.90
39503;DHT22;26970;49.900;10.774;2022-07-03T07:04:02;22.30;99.90
39503;DHT22;26970;49.900;10.774;2022-07-03T07:06:28;22.50;99.90
39503;DHT22;26970;49.900;10.774;2022-07-03T07:08:54;22.70;99.90
39503;DHT22;26970;49.900;10.774;2022-07-03T07:11:19;22.80;99.90
39503;DHT22;26970;49.900;10.774;2022-07-03T07:13:45;23.00;99.90
39503;DHT22;26970;49.900;10.774;2022-07-03T07:16:11;23.20;99.90
39503;DHT22;26970;49.900;10.774;2022-07-03T07:18:36;23.20;99.90
39503;DHT22;26970;49.900;10.774;2022-07-03T07:21:02;23.40;99.90
39503;DHT22;26970;49.900;10.774;2022-07-03T07:23:28;23.40;99.90
39503;DHT22;26970;49.900;10.774;2022-07-03T07:25:53;23.40;99.90
39503;DHT22;26970;49.900;10.774;2022-07-03T07:28:19;23.50;99.90
39503;DHT22;26970;49.900;10.774;2022-07-03T07:30:44;23.60;99.90
39503;DHT22;26970;49.900;10.774;2022-07-03T07:33:10;23.80;99.90
39503;DHT22;26970;49.900;10.774;2022-07-03T07:35:35;23.90;99.90
39503;DHT22;26970;49.900;10.774;2022-07-03T07:38:01;24.10;99.90
39503;DHT22;26970;49.900;10.774;2022-07-03T07:40:26;24.20;99.90
39503;DHT22;26970;49.900;10.774;2022-07-03T07:42:52;24.20;99.90
39503;DHT22;26970;49.900;10.774;2022-07-03T07:45:18;24.10;99.90
39503;DHT22;26970;49.900;10.774;2022-07-03T07:47:44;24.20;99.90
39503;DHT22;26970;49.900;10.774;2022-07-03T07:50:10;24.20;99.90
39503;DHT22;26970;49.900;10.774;2022-07-03T07:52:36;24.40;99.90
39503;DHT22;26970;49.900;10.774;2022-07-03T07:55:02;24.70;99.90
39503;DHT22;26970;49.900;10.774;2022-07-03T07:57:37;24.90;99.90
39503;DHT22;26970;49.900;10.774;2022-07-03T08:00:06;24.90;99.90
39503;DHT22;26970;49.900;10.774;2022-07-03T08:02:31;25.10;99.90
39503;DHT22;26970;49.900;10.774;2022-07-03T08:05:15;25.10;99.90
39503;DHT22;26970;49.900;10.774;2022-07-03T08:08:09;25.30;99.90
39503;DHT22;26970;49.900;10.774;2022-07-03T08:13:05;25.40;99.90
39503;DHT22;26970;49.900;10.774;2022-07-03T08:15:31;25.60;99.90
39503;DHT22;26970;49.900;10.774;2022-07-03T08:17:57;25.80;99.90
39503;DHT22;26970;49.900;10.774;2022-07-03T08:20:22;26.00;99.50
39503;DHT22;26970;49.900;10.774;2022-07-03T08:22:48;26.10;99.00
39503;DHT22;26970;49.900;10.774;2022-07-03T08:25:13;25.90;98.80
39503;DHT22;26970;49.900;10.774;2022-07-03T08:27:39;25.80;99.00
39503;DHT22;26970;49.900;10.774;2022-07-03T08:30:05;25.90;99.00
39503;DHT22;26970;49.900;10.774;2022-07-03T08:32:31;26.00;99.40
39503;DHT22;26970;49.900;10.774;2022-07-03T08:34:56;26.10;98.50
39503;DHT22;26970;49.900;10.774;2022-07-03T08:37:22;26.20;98.60
39503;DHT22;26970;49.900;10.774;2022-07-03T08:39:47;26.30;98.60
39503;DHT22;26970;49.900;10.774;2022-07-03T08:42:13;26.50;97.50
39503;DHT22;26970;49.900;10.774;2022-07-03T08:44:43;26.50;97.80
39503;DHT22;26970;49.900;10.774;2022-07-03T08:47:12;26.40;97.10
39503;DHT22;26970;49.900;10.774;2022-07-03T08:49:38;26.40;98.10
39503;DHT22;26970;49.900;10.774;2022-07-03T08:52:05;26.50;97.70
39503;DHT22;26970;49.900;10.774;2022-07-03T08:54:33;26.60;97.20
39503;DHT22;26970;49.900;10.774;2022-07-03T08:57:00;26.50;97.00
39503;DHT22;26970;49.900;10.774;2022-07-03T08:59:36;26.60;96.50
39503;DHT22;26970;49.900;10.774;2022-07-03T09:02:02;27.00;97.30
39503;DHT22;26970;49.900;10.774;2022-07-03T09:04:30;27.10;95.80
39503;DHT22;26970;49.900;10.774;2022-07-03T09:06:57;27.10;96.30
39503;DHT22;26970;49.900;10.774;2022-07-03T09:09:23;27.30;95.30
39503;DHT22;26970;49.900;10.774;2022-07-03T09:11:50;27.40;95.50
39503;DHT22;26970;49.900;10.774;2022-07-03T09:14:15;27.40;94.90
39503;DHT22;26970;49.900;10.774;2022-07-03T09:16:41;27.40;94.90
39503;DHT22;26970;49.900;10.774;2022-07-03T09:19:07;27.50;94.50
39503;DHT22;26970;49.900;10.774;2022-07-03T09:21:40;27.40;94.00
39503;DHT22;26970;49.900;10.774;2022-07-03T09:24:10;27.30;94.60
39503;DHT22;26970;49.900;10.774;2022-07-03T09:26:36;27.30;93.60
39503;DHT22;26970;49.900;10.774;2022-07-03T09:29:02;27.30;93.50
39503;DHT22;26970;49.900;10.774;2022-07-03T09:31:30;27.40;93.50
39503;DHT22;26970;49.900;10.774;2022-07-03T09:34:05;27.60;94.20
39503;DHT22;26970;49.900;10.774;2022-07-03T09:36:46;27.50;93.40
39503;DHT22;26970;49.900;10.774;2022-07-03T09:39:31;27.50;93.60
39503;DHT22;26970;49.900;10.774;2022-07-03T09:42:03;27.30;92.70
39503;DHT22;26970;49.900;10.774;2022-07-03T09:44:36;27.60;90.80
39503;DHT22;26970;49.900;10.774;2022-07-03T09:47:24;27.60;91.50
39503;DHT22;26970;49.900;10.774;2022-07-03T10:00:18;28.50;90.20
39503;DHT22;26970;49.900;10.774;2022-07-03T10:05:24;28.80;88.00
39503;DHT22;26970;49.900;10.774;2022-07-03T10:07:55;28.80;87.20
39503;DHT22;26970;49.900;10.774;2022-07-03T10:10:22;28.30;89.70
39503;DHT22;26970;49.900;10.774;2022-07-03T10:12:52;28.40;90.10
39503;DHT22;26970;49.900;10.774;2022-07-03T10:15:19;28.50;88.70
39503;DHT22;26970;49.900;10.774;2022-07-03T10:17:49;28.20;83.20
39503;DHT22;26970;49.900;10.774;2022-07-03T10:20:30;27.90;84.90
39503;DHT22;26970;49.900;10.774;2022-07-03T10:22:55;27.80;86.50
39503;DHT22;26970;49.900;10.774;2022-07-03T10:25:22;28.20;86.40
39503;DHT22;26970;49.900;10.774;2022-07-03T10:27:48;28.40;83.60
39503;DHT22;26970;49.900;10.774;2022-07-03T10:30:15;28.60;82.70
39503;DHT22;26970;49.900;10.774;2022-07-03T10:32:45;28.50;82.50
39503;DHT22;26970;49.900;10.774;2022-07-03T10:35:23;28.70;82.90
39503;DHT22;26970;49.900;10.774;2022-07-03T10:43:34;28.80;82.80
39503;DHT22;26970;49.900;10.774;2022-07-03T10:46:22;29.10;81.90
39503;DHT22;26970;49.900;10.774;2022-07-03T10:49:07;29.10;81.90
39503;DHT22;26970;49.900;10.774;2022-07-03T10:54:20;28.80;79.90
39503;DHT22;26970;49.900;10.774;2022-07-03T11:07:28;28.80;79.20
39503;DHT22;26970;49.900;10.774;2022-07-03T11:15:34;29.10;76.60
39503;DHT22;26970;49.900;10.774;2022-07-03T11:20:58;29.40;74.20
39503;DHT22;26970;49.900;10.774;2022-07-03T11:25:52;29.40;74.20
39503;DHT22;26970;49.900;10.774;2022-07-03T11:33:44;29.40;73.60
39503;DHT22;26970;49.900;10.774;2022-07-03T11:36:30;29.40;72.80
39503;DHT22;26970;49.900;10.774;2022-07-03T11:41:42;29.80;73.50
39503;DHT22;26970;49.900;10.774;2022-07-03T11:44:09;30.00;72.00
39503;DHT22;26970;49.900;10.774;2022-07-03T11:46:37;30.00;70.00
39503;DHT22;26970;49.900;10.774;2022-07-03T11:49:14;30.00;71.40
39503;DHT22;26970;49.900;10.774;2022-07-03T11:51:53;29.90;72.10
39503;DHT22;26970;49.900;10.774;2022-07-03T11:54:19;29.90;71.30
39503;DHT22;26970;49.900;10.774;2022-07-03T11:56:45;30.00;72.80
39503;DHT22;26970;49.900;10.774;2022-07-03T11:59:10;29.70;71.80
39503;DHT22;26970;49.900;10.774;2022-07-03T12:01:38;29.30;70.40
39503;DHT22;26970;49.900;10.774;2022-07-03T12:04:18;29.40;70.90
39503;DHT22;26970;49.900;10.774;2022-07-03T12:06:51;29.50;70.50
39503;DHT22;26970;49.900;10.774;2022-07-03T12:09:18;29.70;71.30
39503;DHT22;26970;49.900;10.774;2022-07-03T12:12:01;30.00;70.90
39503;DHT22;26970;49.900;10.774;2022-07-03T12:14:43;30.10;69.40
39503;DHT22;26970;49.900;10.774;2022-07-03T12:17:23;29.80;69.30
39503;DHT22;26970;49.900;10.774;2022-07-03T12:19:59;29.40;70.40
39503;DHT22;26970;49.900;10.774;2022-07-03T12:22:31;29.50;71.60
39503;DHT22;26970;49.900;10.774;2022-07-03T12:25:04;29.70;71.50
39503;DHT22;26970;49.900;10.774;2022-07-03T12:27:33;29.90;70.60
39503;DHT22;26970;49.900;10.774;2022-07-03T12:29:59;29.90;71.20
39503;DHT22;26970;49.900;10.774;2022-07-03T12:32:25;29.90;70.40
39503;DHT22;26970;49.900;10.774;2022-07-03T12:34:51;30.00;70.00
39503;DHT22;26970;49.900;10.774;2022-07-03T12:37:16;29.90;70.40
39503;DHT22;26970;49.900;10.774;2022-07-03T12:39:46;29.80;69.80
39503;DHT22;26970;49.900;10.774;2022-07-03T12:42:20;29.80;70.00
39503;DHT22;26970;49.900;10.774;2022-07-03T12:44:56;29.70;69.90
39503;DHT22;26970;49.900;10.774;2022-07-03T12:47:23;29.80;70.90
39503;DHT22;26970;49.900;10.774;2022-07-03T12:50:02;29.80;71.50
39503;DHT22;26970;49.900;10.774;2022-07-03T12:52:30;30.00;70.50
39503;DHT22;26970;49.900;10.774;2022-07-03T12:54:56;30.20;70.10
39503;DHT22;26970;49.900;10.774;2022-07-03T12:57:23;30.20;70.80
39503;DHT22;26970;49.900;10.774;2022-07-03T13:02:40;30.20;70.50
39503;DHT22;26970;49.900;10.774;2022-07-03T13:05:17;30.10;69.80
39503;DHT22;26970;49.900;10.774;2022-07-03T13:07:45;30.20;71.40
39503;DHT22;26970;49.900;10.774;2022-07-03T13:10:11;30.30;72.30
39503;DHT22;26970;49.900;10.774;2022-07-03T13:13:06;30.40;69.50
39503;DHT22;26970;49.900;10.774;2022-07-03T13:15:32;30.40;70.90
39503;DHT22;26970;49.900;10.774;2022-07-03T13:18:00;30.40;71.60
39503;DHT22;26970;49.900;10.774;2022-07-03T13:22:54;30.00;68.60
39503;DHT22;26970;49.900;10.774;2022-07-03T13:25:20;29.90;68.60
39503;DHT22;26970;49.900;10.774;2022-07-03T13:27:46;29.80;67.90
39503;DHT22;26970;49.900;10.774;2022-07-03T13:30:16;30.00;70.00
39503;DHT22;26970;49.900;10.774;2022-07-03T13:32:42;30.30;68.80
39503;DHT22;26970;49.900;10.774;2022-07-03T13:35:08;30.30;67.50
39503;DHT22;26970;49.900;10.774;2022-07-03T13:37:34;30.20;67.60
39503;DHT22;26970;49.900;10.774;2022-07-03T13:40:01;30.40;68.90
39503;DHT22;26970;49.900;10.774;2022-07-03T13:42:27;30.40;67.20
39503;DHT22;26970;49.900;10.774;2022-07-03T13:44:52;30.50;66.90
39503;DHT22;26970;49.900;10.774;2022-07-03T13:47:18;30.60;65.90
39503;DHT22;26970;49.900;10.774;2022-07-03T13:49:44;30.40;65.80
39503;DHT22;26970;49.900;10.774;2022-07-03T13:52:09;30.30;64.60
39503;DHT22;26970;49.900;10.774;2022-07-03T13:54:35;30.20;66.50
39503;DHT22;26970;49.900;10.774;2022-07-03T13:57:01;30.30;66.50
39503;DHT22;26970;49.900;10.774;2022-07-03T13:59:27;30.40;66.00
39503;DHT22;26970;49.900;10.774;2022-07-03T14:01:59;30.50;66.60
39503;DHT22;26970;49.900;10.774;2022-07-03T14:04:25;30.30;67.00
39503;DHT22;26970;49.900;10.774;2022-07-03T14:06:51;30.40;66.60
39503;DHT22;26970;49.900;10.774;2022-07-03T14:09:17;30.40;67.20
39503;DHT22;26970;49.900;10.774;2022-07-03T14:11:43;30.30;67.10
39503;DHT22;26970;49.900;10.774;2022-07-03T14:14:09;30.20;66.90
39503;DHT22;26970;49.900;10.774;2022-07-03T14:16:34;30.20;67.00
39503;DHT22;26970;49.900;10.774;2022-07-03T14:19:00;30.30;66.10
39503;DHT22;26970;49.900;10.774;2022-07-03T14:21:29;30.30;66.70
39503;DHT22;26970;49.900;10.774;2022-07-03T14:23:54;30.30;67.50
39503;DHT22;26970;49.900;10.774;2022-07-03T14:26:20;30.30;67.90
39503;DHT22;26970;49.900;10.774;2022-07-03T14:29:06;30.30;67.60
39503;DHT22;26970;49.900;10.774;2022-07-03T14:31:52;30.20;68.60
39503;DHT22;26970;49.900;10.774;2022-07-03T14:34:37;30.20;67.90
39503;DHT22;26970;49.900;10.774;2022-07-03T14:37:02;30.20;67.50
39503;DHT22;26970;49.900;10.774;2022-07-03T14:39:28;30.20;67.70
39503;DHT22;26970;49.900;10.774;2022-07-03T14:41:53;30.20;67.60
39503;DHT22;26970;49.900;10.774;2022-07-03T14:44:19;30.10;66.40
39503;DHT22;26970;49.900;10.774;2022-07-03T14:46:49;29.90;65.30
39503;DHT22;26970;49.900;10.774;2022-07-03T14:49:15;29.80;66.40
39503;DHT22;26970;49.900;10.774;2022-07-03T14:51:40;29.80;67.20
39503;DHT22;26970;49.900;10.774;2022-07-03T14:54:06;29.80;65.90
39503;DHT22;26970;49.900;10.774;2022-07-03T14:56:32;29.80;65.20
39503;DHT22;26970;49.900;10.774;2022-07-03T14:59:07;29.80;65.10
39503;DHT22;26970;49.900;10.774;2022-07-03T15:01:34;29.80;65.80
39503;DHT22;26970;49.900;10.774;2022-07-03T15:04:04;29.90;65.60
39503;DHT22;26970;49.900;10.774;2022-07-03T15:06:34;30.00;66.70
39503;DHT22;26970;49.900;10.774;2022-07-03T15:09:01;30.10;66.90
39503;DHT22;26970;49.900;10.774;2022-07-03T15:11:51;30.00;65.80
39503;DHT22;26970;49.900;10.774;2022-07-03T15:14:39;30.10;66.70
39503;DHT22;26970;49.900;10.774;2022-07-03T15:17:06;30.10;65.80
39503;DHT22;26970;49.900;10.774;2022-07-03T15:19:34;29.90;64.60
39503;DHT22;26970;49.900;10.774;2022-07-03T15:22:01;29.60;63.90
39503;DHT22;26970;49.900;10.774;2022-07-03T15:24:29;29.80;64.50
39503;DHT22;26970;49.900;10.774;2022-07-03T15:26:55;29.80;64.60
39503;DHT22;26970;49.900;10.774;2022-07-03T15:29:21;29.70;64.10
39503;DHT22;26970;49.900;10.774;2022-07-03T15:31:47;29.80;63.90
39503;DHT22;26970;49.900;10.774;2022-07-03T15:34:13;29.80;64.30
39503;DHT22;26970;49.900;10.774;2022-07-03T15:36:45;29.80;64.00
39503;DHT22;26970;49.900;10.774;2022-07-03T15:39:25;29.70;64.80
39503;DHT22;26970;49.900;10.774;2022-07-03T15:45:03;29.60;65.30
39503;DHT22;26970;49.900;10.774;2022-07-03T15:47:55;29.50;65.60
39503;DHT22;26970;49.900;10.774;2022-07-03T15:53:30;29.40;65.80
39503;DHT22;26970;49.900;10.774;2022-07-03T15:56:03;29.40;65.30
39503;DHT22;26970;49.900;10.774;2022-07-03T15:58:30;29.40;66.10
39503;DHT22;26970;49.900;10.774;2022-07-03T16:01:03;29.40;65.60
39503;DHT22;26970;49.900;10.774;2022-07-03T16:04:01;29.30;66.30
39503;DHT22;26970;49.900;10.774;2022-07-03T16:06:27;29.30;66.30
39503;DHT22;26970;49.900;10.774;2022-07-03T16:08:54;29.40;65.90
39503;DHT22;26970;49.900;10.774;2022-07-03T16:11:21;29.30;66.30
39503;DHT22;26970;49.900;10.774;2022-07-03T16:13:48;29.20;65.40
39503;DHT22;26970;49.900;10.774;2022-07-03T16:16:17;29.20;63.30
39503;DHT22;26970;49.900;10.774;2022-07-03T16:18:45;29.30;64.00
39503;DHT22;26970;49.900;10.774;2022-07-03T16:21:12;29.20;63.90
39503;DHT22;26970;49.900;10.774;2022-07-03T16:23:38;29.30;62.80
39503;DHT22;26970;49.900;10.774;2022-07-03T16:26:05;29.30;64.40
39503;DHT22;26970;49.900;10.774;2022-07-03T16:28:32;29.20;63.40
39503;DHT22;26970;49.900;10.774;2022-07-03T16:31:01;29.20;63.40
39503;DHT22;26970;49.900;10.774;2022-07-03T16:33:33;29.20;64.00
39503;DHT22;26970;49.900;10.774;2022-07-03T16:36:13;29.10;63.80
39503;DHT22;26970;49.900;10.774;2022-07-03T16:38:42;28.90;64.00
39503;DHT22;26970;49.900;10.774;2022-07-03T16:41:10;28.70;64.10
39503;DHT22;26970;49.900;10.774;2022-07-03T16:43:39;28.60;64.40
39503;DHT22;26970;49.900;10.774;2022-07-03T16:46:09;28.50;63.10
39503;DHT22;26970;49.900;10.774;2022-07-03T16:48:40;28.40;63.70
39503;DHT22;26970;49.900;10.774;2022-07-03T16:51:08;28.40;63.90
39503;DHT22;26970;49.900;10.774;2022-07-03T16:53:37;28.40;63.40